Time;durP1;ratioP1;P1;durP2;ratioP2;P2;SDS_P1;SDS_P2;PMS_P1;PMS_P2;Temp;Humidity;BMP_temperature;BMP_pressure;BME280_temperature;BME280_humidity;BME280_pressure;Samples;Min_cycle;Max_cycle;Signal;HPM_P1;HPM_P2
2023/03/20 00:00:52;;;;;;;;;;;9.80;57.10;;;;;;5026047;28;19992;-77
2023/03/20 00:03:18;;;;;;;;;;;9.80;57.10;;;;;;5027678;28;19913;-77
2023/03/20 00:05:44;;;;;;;;;;;9.80;57.00;;;;;;5047478;28;20477;-78
2023/03/20 00:08:10;;;;;;;;;;;9.80;56.90;;;;;;5047471;28;19923;-77
2023/03/20 00:10:37;;;;;;;;;;;9.80;56.90;;;;;;5046123;28;19943;-77
2023/03/20 00:13:03;;;;;;;;;;;9.80;56.90;;;;;;5028635;28;19917;-77
2023/03/20 00:15:35;;;;;;;;;;;9.80;57.10;;;;;;5012418;28;20286;-77
2023/03/20 00:18:01;;;;;;;;;;;9.80;57.30;;;;;;5047050;28;19924;-77
2023/03/20 00:20:27;;;;;;;;;;;9.80;57.40;;;;;;5029640;28;19921;-78
2023/03/20 00:22:53;;;;;;;;;;;9.80;57.40;;;;;;5046599;28;19920;-77
2023/03/20 00:25:20;;;;;;;;;;;9.80;57.40;;;;;;5045550;28;19921;-78
2023/03/20 00:27:46;;;;;;;;;;;9.80;57.40;;;;;;5046741;28;19939;-78
2023/03/20 00:30:21;;;;;;;;;;;9.80;57.30;;;;;;5046867;28;19931;-77
2023/03/20 00:32:47;;;;;;;;;;;9.80;57.10;;;;;;5029155;28;19923;-78
2023/03/20 00:35:21;;;;;;;;;;;9.80;57.10;;;;;;5028199;28;19921;-78
2023/03/20 00:37:47;;;;;;;;;;;9.80;57.10;;;;;;5046267;28;19917;-78
2023/03/20 00:40:13;;;;;;;;;;;9.70;57.00;;;;;;5028700;28;19928;-78
2023/03/20 00:42:41;;;;;;;;;;;9.80;57.00;;;;;;5029533;28;19920;-78
2023/03/20 00:45:12;;;;;;;;;;;9.80;57.00;;;;;;5028274;28;20009;-79
2023/03/20 00:47:40;;;;;;;;;;;9.80;57.00;;;;;;5028420;28;19931;-78
2023/03/20 00:50:14;;;;;;;;;;;9.70;56.90;;;;;;5012202;28;20494;-76
2023/03/20 00:52:39;;;;;;;;;;;9.70;56.80;;;;;;5009180;28;20126;-76
2023/03/20 00:55:05;;;;;;;;;;;9.80;57.00;;;;;;5011664;28;20015;-77
2023/03/20 00:57:41;;;;;;;;;;;9.70;57.10;;;;;;5045902;28;20406;-76
2023/03/20 01:00:13;;;;;;;;;;;9.70;57.10;;;;;;5028531;28;20375;-76
2023/03/20 01:02:39;;;;;;;;;;;9.70;57.10;;;;;;5028664;28;19932;-77
2023/03/20 01:05:05;;;;;;;;;;;9.70;57.60;;;;;;5028075;28;19920;-77
2023/03/20 01:07:31;;;;;;;;;;;9.70;57.00;;;;;;5024264;28;19917;-77
2023/03/20 01:09:56;;;;;;;;;;;9.70;56.90;;;;;;5010572;28;19921;-77
2023/03/20 01:12:22;;;;;;;;;;;9.70;56.90;;;;;;5046402;28;20307;-77
2023/03/20 01:14:51;;;;;;;;;;;9.70;56.90;;;;;;5027364;28;19921;-75
2023/03/20 01:17:19;;;;;;;;;;;9.70;56.90;;;;;;5027704;28;19948;-76
2023/03/20 01:19:45;;;;;;;;;;;9.70;56.80;;;;;;5028108;28;19920;-76
2023/03/20 01:22:12;;;;;;;;;;;9.70;56.80;;;;;;5046254;28;20378;-76
2023/03/20 01:24:38;;;;;;;;;;;9.70;56.90;;;;;;5045783;28;19967;-76
2023/03/20 01:27:10;;;;;;;;;;;9.70;57.10;;;;;;5026293;28;19931;-78
2023/03/20 01:29:36;;;;;;;;;;;9.70;57.30;;;;;;5028166;28;19929;-77
2023/03/20 01:32:02;;;;;;;;;;;9.70;57.40;;;;;;5027998;28;20456;-78
2023/03/20 01:34:28;;;;;;;;;;;9.70;57.30;;;;;;5027241;28;19928;-78
2023/03/20 01:36:56;;;;;;;;;;;9.70;57.30;;;;;;5010720;28;19917;-78
2023/03/20 01:39:30;;;;;;;;;;;9.70;57.30;;;;;;5024411;28;19963;-78
2023/03/20 01:41:56;;;;;;;;;;;9.70;57.10;;;;;;5045439;28;19924;-78
2023/03/20 01:44:27;;;;;;;;;;;9.70;57.10;;;;;;5026315;28;19939;-78
2023/03/20 01:46:57;;;;;;;;;;;9.60;57.00;;;;;;5027112;28;20037;-78
2023/03/20 01:49:23;;;;;;;;;;;9.70;57.10;;;;;;5027227;28;20340;-77
2023/03/20 01:51:51;;;;;;;;;;;9.70;57.00;;;;;;5027843;28;19913;-78
2023/03/20 01:54:22;;;;;;;;;;;9.60;57.00;;;;;;5024282;28;19916;-78
2023/03/20 01:57:10;;;;;;;;;;;9.60;56.90;;;;;;5024727;28;19924;-79
2023/03/20 01:59:40;;;;;;;;;;;9.60;56.90;;;;;;5026842;28;20441;-79
2023/03/20 02:02:08;;;;;;;;;;;9.70;56.90;;;;;;5026786;28;20379;-78
2023/03/20 02:04:37;;;;;;;;;;;9.60;56.90;;;;;;5009036;28;19923;-78
2023/03/20 02:07:09;;;;;;;;;;;9.60;57.00;;;;;;5011792;28;19924;-79
2023/03/20 02:09:46;;;;;;;;;;;9.60;57.00;;;;;;4995796;28;20002;-77
2023/03/20 02:12:17;;;;;;;;;;;9.60;57.00;;;;;;5026706;28;20011;-77
2023/03/20 02:14:44;;;;;;;;;;;9.60;57.00;;;;;;5024969;28;20076;-78
2023/03/20 02:17:21;;;;;;;;;;;9.60;56.90;;;;;;5026784;28;19970;-78
2023/03/20 02:20:00;;;;;;;;;;;9.60;56.90;;;;;;5007767;28;19916;-78
2023/03/20 02:22:26;;;;;;;;;;;9.60;56.80;;;;;;5026413;28;19924;-78
2023/03/20 02:25:01;;;;;;;;;;;9.60;56.80;;;;;;5010504;28;19994;-78
2023/03/20 02:27:43;;;;;;;;;;;9.60;56.80;;;;;;5026754;28;20007;-78
2023/03/20 02:30:30;;;;;;;;;;;9.60;56.70;;;;;;5021457;28;19986;-78
2023/03/20 02:32:56;;;;;;;;;;;9.60;56.70;;;;;;5009708;28;19920;-79
2023/03/20 02:35:27;;;;;;;;;;;9.60;56.90;;;;;;5010219;28;19916;-76
2023/03/20 02:37:58;;;;;;;;;;;9.60;57.10;;;;;;5044380;28;19963;-76
2023/03/20 02:40:38;;;;;;;;;;;9.60;57.20;;;;;;5025837;28;20420;-76
2023/03/20 02:43:16;;;;;;;;;;;9.60;57.40;;;;;;5026633;28;19916;-77
2023/03/20 02:45:52;;;;;;;;;;;9.60;57.50;;;;;;5026204;28;19972;-77
2023/03/20 02:48:32;;;;;;;;;;;9.60;57.40;;;;;;5027254;28;19919;-76
2023/03/20 02:50:58;;;;;;;;;;;9.60;57.20;;;;;;5025886;28;19916;-76
2023/03/20 02:53:27;;;;;;;;;;;9.50;57.20;;;;;;5025057;28;19916;-76
2023/03/20 02:56:01;;;;;;;;;;;9.60;57.20;;;;;;5044344;28;19921;-77
2023/03/20 02:58:32;;;;;;;;;;;9.60;57.20;;;;;;5026338;28;20375;-77
2023/03/20 03:01:02;;;;;;;;;;;9.50;57.10;;;;;;5027722;28;19920;-76
2023/03/20 03:03:40;;;;;;;;;;;9.60;57.20;;;;;;5026619;28;19919;-76
2023/03/20 03:06:26;;;;;;;;;;;9.60;57.30;;;;;;5039309;28;20399;-76
2023/03/20 03:09:01;;;;;;;;;;;9.60;57.20;;;;;;5044159;28;20021;-77
2023/03/20 03:11:26;;;;;;;;;;;9.50;57.30;;;;;;5005644;28;19916;-77
2023/03/20 03:13:54;;;;;;;;;;;9.60;57.30;;;;;;5022945;28;19923;-76
2023/03/20 03:16:25;;;;;;;;;;;9.50;57.30;;;;;;5008998;28;21104;-76
2023/03/20 03:18:55;;;;;;;;;;;9.60;57.40;;;;;;5043146;28;19913;-77
2023/03/20 03:21:24;;;;;;;;;;;9.50;57.40;;;;;;5028240;28;19924;-78
2023/03/20 03:23:51;;;;;;;;;;;9.50;57.30;;;;;;5027679;28;20394;-78
2023/03/20 03:26:24;;;;;;;;;;;9.50;57.20;;;;;;5048703;28;19923;-78
2023/03/20 03:28:52;;;;;;;;;;;9.50;57.20;;;;;;5012695;28;19921;-78
2023/03/20 03:31:18;;;;;;;;;;;9.50;57.10;;;;;;5027430;28;19924;-78
2023/03/20 03:33:47;;;;;;;;;;;9.50;57.20;;;;;;5028258;28;19912;-78
2023/03/20 03:36:28;;;;;;;;;;;9.50;57.10;;;;;;5013724;28;20450;-79
2023/03/20 03:39:00;;;;;;;;;;;9.50;57.10;;;;;;5027394;28;19920;-78
2023/03/20 03:41:35;;;;;;;;;;;9.50;57.10;;;;;;5026213;28;20032;-78
2023/03/20 03:44:03;;;;;;;;;;;9.50;57.20;;;;;;5022396;28;20009;-75
2023/03/20 03:47:05;;;;;;;;;;;9.50;57.40;;;;;;5041078;28;20016;-75
2023/03/20 03:49:33;;;;;;;;;;;9.50;57.50;;;;;;4965389;28;19964;-75
2023/03/20 03:52:00;;;;;;;;;;;9.50;57.70;;;;;;4966521;28;19918;-76
2023/03/20 03:54:33;;;;;;;;;;;9.50;57.90;;;;;;4949384;28;19913;-75
2023/03/20 03:57:21;;;;;;;;;;;9.50;58.00;;;;;;4966354;28;20345;-74
2023/03/20 03:59:49;;;;;;;;;;;9.50;58.10;;;;;;4951411;28;20344;-75
2023/03/20 04:02:18;;;;;;;;;;;9.50;58.10;;;;;;4949545;28;20058;-75
2023/03/20 04:04:46;;;;;;;;;;;9.50;58.10;;;;;;4950137;28;19933;-75
2023/03/20 04:07:13;;;;;;;;;;;9.50;58.10;;;;;;4962937;28;19919;-76
2023/03/20 04:09:38;;;;;;;;;;;9.50;58.10;;;;;;4963040;28;19968;-75
2023/03/20 04:12:05;;;;;;;;;;;9.50;58.10;;;;;;4949241;28;19925;-75
2023/03/20 04:14:32;;;;;;;;;;;9.50;58.10;;;;;;4951819;28;20344;-77
2023/03/20 04:16:58;;;;;;;;;;;9.50;57.90;;;;;;4949077;28;19925;-75
2023/03/20 04:19:24;;;;;;;;;;;9.50;58.00;;;;;;4965240;28;19918;-75
2023/03/20 04:21:50;;;;;;;;;;;9.50;57.90;;;;;;4964983;28;20417;-76
2023/03/20 04:24:16;;;;;;;;;;;9.50;58.00;;;;;;5013820;28;19912;-78
2023/03/20 04:26:42;;;;;;;;;;;9.50;58.10;;;;;;5040470;28;19927;-75
2023/03/20 04:29:08;;;;;;;;;;;9.50;58.10;;;;;;5029088;28;19924;-76
2023/03/20 04:31:39;;;;;;;;;;;9.50;58.10;;;;;;5028862;28;20058;-75
2023/03/20 04:34:15;;;;;;;;;;;9.50;58.00;;;;;;5045849;28;19916;-77
2023/03/20 04:37:00;;;;;;;;;;;9.50;58.00;;;;;;5044239;28;19952;-82
2023/03/20 04:39:36;;;;;;;;;;;9.50;57.90;;;;;;5028264;28;19912;-79
2023/03/20 04:42:03;;;;;;;;;;;9.60;57.90;;;;;;5010270;28;20351;-81
2023/03/20 04:44:29;;;;;;;;;;;9.60;58.00;;;;;;5028496;28;19927;-82
2023/03/20 04:46:55;;;;;;;;;;;9.60;58.10;;;;;;5039368;28;20306;-88
2023/03/20 04:49:21;;;;;;;;;;;9.60;58.50;;;;;;5028401;28;19920;-85
2023/03/20 04:51:48;;;;;;;;;;;9.60;58.80;;;;;;5047575;28;19913;-88
2023/03/20 04:54:17;;;;;;;;;;;9.60;59.30;;;;;;5029835;28;20376;-89
2023/03/20 04:56:43;;;;;;;;;;;9.60;59.80;;;;;;5012844;28;19923;-84
2023/03/20 04:59:13;;;;;;;;;;;9.60;60.20;;;;;;5028721;28;19924;-88
2023/03/20 05:01:39;;;;;;;;;;;9.60;60.50;;;;;;5029596;28;19925;-89
2023/03/20 05:04:06;;;;;;;;;;;9.70;60.90;;;;;;5045048;28;19917;-88
2023/03/20 05:06:32;;;;;;;;;;;9.70;61.10;;;;;;5029746;28;20031;-89
2023/03/20 05:08:59;;;;;;;;;;;9.70;61.30;;;;;;5026280;28;20327;-88
2023/03/20 05:11:27;;;;;;;;;;;9.70;61.50;;;;;;5046448;28;19917;-88
2023/03/20 05:14:05;;;;;;;;;;;9.70;61.70;;;;;;5047605;28;19924;-86
2023/03/20 05:16:51;;;;;;;;;;;9.80;61.80;;;;;;5046635;28;20657;-88
2023/03/20 05:19:17;;;;;;;;;;;9.80;61.90;;;;;;5046898;28;20012;-88
2023/03/20 05:22:09;;;;;;;;;;;9.80;61.80;;;;;;5042251;28;20003;-82
2023/03/20 05:25:01;;;;;;;;;;;9.80;61.70;;;;;;5023128;28;20008;-89
2023/03/20 05:27:45;;;;;;;;;;;9.90;61.40;;;;;;5044923;28;19954;-88
2023/03/20 05:30:30;;;;;;;;;;;9.90;61.20;;;;;;5045853;28;20070;-86
2023/03/20 05:32:56;;;;;;;;;;;9.90;60.90;;;;;;5029177;28;20031;-89
2023/03/20 05:35:27;;;;;;;;;;;9.90;60.80;;;;;;5048295;28;20361;-88
2023/03/20 05:38:11;;;;;;;;;;;10.00;60.60;;;;;;5055051;28;20315;-88
2023/03/20 05:40:59;;;;;;;;;;;10.10;60.50;;;;;;5034732;28;19967;-88
2023/03/20 05:43:41;;;;;;;;;;;10.00;60.20;;;;;;5025653;28;19982;-89
2023/03/20 05:46:27;;;;;;;;;;;10.10;60.10;;;;;;4992510;28;20455;-88
2023/03/20 05:49:14;;;;;;;;;;;10.10;60.00;;;;;;4992731;28;19917;-81
2023/03/20 05:52:06;;;;;;;;;;;10.10;57.60;;;;;;4984794;28;19918;-80
2023/03/20 05:54:46;;;;;;;;;;;10.00;55.70;;;;;;4975836;28;19914;-80
2023/03/20 05:57:41;;;;;;;;;;;10.00;54.80;;;;;;4912948;29;19923;-80
2023/03/20 06:00:37;;;;;;;;;;;9.90;54.50;;;;;;4924902;29;20634;-81
2023/03/20 06:03:23;;;;;;;;;;;9.90;53.80;;;;;;4917695;29;19915;-81
2023/03/20 06:06:03;;;;;;;;;;;9.90;53.30;;;;;;4915723;29;19965;-80
2023/03/20 06:08:29;;;;;;;;;;;9.80;53.10;;;;;;4900786;29;19923;-80
2023/03/20 06:10:57;;;;;;;;;;;9.70;53.20;;;;;;4914472;29;20293;-81
2023/03/20 06:13:23;;;;;;;;;;;9.70;53.30;;;;;;4923439;29;20326;-80
2023/03/20 06:15:49;;;;;;;;;;;9.60;52.40;;;;;;4904817;29;19919;-78
2023/03/20 06:18:17;;;;;;;;;;;9.60;52.30;;;;;;4911904;29;19918;-79
2023/03/20 06:20:43;;;;;;;;;;;9.60;52.90;;;;;;4924419;29;19922;-83
2023/03/20 06:23:08;;;;;;;;;;;9.60;53.10;;;;;;4915961;29;19929;-87
2023/03/20 06:25:35;;;;;;;;;;;9.50;53.40;;;;;;4944384;29;19993;-81
2023/03/20 06:28:01;;;;;;;;;;;9.60;53.30;;;;;;4934454;29;20436;-80
2023/03/20 06:30:27;;;;;;;;;;;9.60;53.30;;;;;;4933019;29;19929;-81
2023/03/20 06:32:53;;;;;;;;;;;9.60;53.40;;;;;;4933350;29;19929;-81
2023/03/20 06:35:21;;;;;;;;;;;9.50;53.50;;;;;;4898369;29;19919;-80
2023/03/20 06:37:49;;;;;;;;;;;9.60;53.30;;;;;;4927580;29;20329;-83
2023/03/20 06:40:21;;;;;;;;;;;9.60;53.50;;;;;;4950863;28;20062;-79
2023/03/20 06:42:47;;;;;;;;;;;9.50;53.20;;;;;;4999219;28;19970;-79
2023/03/20 06:45:14;;;;;;;;;;;9.50;53.30;;;;;;5017433;28;19913;-79
2023/03/20 06:47:58;;;;;;;;;;;9.50;53.00;;;;;;5013895;28;19945;-79
2023/03/20 06:50:24;;;;;;;;;;;9.50;52.60;;;;;;5014041;28;20415;-79
2023/03/20 06:52:51;;;;;;;;;;;9.50;52.60;;;;;;4998093;28;19929;-79
2023/03/20 06:55:38;;;;;;;;;;;9.50;52.80;;;;;;4997996;28;20361;-79
2023/03/20 06:58:04;;;;;;;;;;;9.50;52.70;;;;;;4983682;28;19971;-79
2023/03/20 07:00:31;;;;;;;;;;;9.50;52.80;;;;;;5013909;28;19913;-78
2023/03/20 07:03:01;;;;;;;;;;;9.50;52.90;;;;;;5002297;28;19957;-79
2023/03/20 07:05:27;;;;;;;;;;;9.50;53.00;;;;;;5015770;28;19960;-80
2023/03/20 07:07:54;;;;;;;;;;;9.50;53.00;;;;;;5017230;28;20016;-80
2023/03/20 07:10:20;;;;;;;;;;;9.50;53.00;;;;;;5015333;28;20008;-80
2023/03/20 07:12:50;;;;;;;;;;;9.50;52.90;;;;;;5003454;28;19939;-80
2023/03/20 07:15:16;;;;;;;;;;;9.50;52.70;;;;;;4999450;28;20396;-80
2023/03/20 07:17:42;;;;;;;;;;;9.50;52.50;;;;;;4998330;28;20395;-80
2023/03/20 07:20:09;;;;;;;;;;;9.50;52.40;;;;;;5000678;28;20196;-82
2023/03/20 07:22:35;;;;;;;;;;;9.60;52.40;;;;;;5002056;28;19921;-80
2023/03/20 07:25:21;;;;;;;;;;;9.50;52.20;;;;;;5004907;28;19948;-81
2023/03/20 07:27:49;;;;;;;;;;;9.60;52.00;;;;;;5015853;28;19959;-80
2023/03/20 07:30:19;;;;;;;;;;;9.60;51.90;;;;;;5032212;28;19927;-79
2023/03/20 07:32:47;;;;;;;;;;;9.60;51.60;;;;;;5021578;28;20284;-81
2023/03/20 07:35:14;;;;;;;;;;;9.60;51.50;;;;;;5006630;28;19916;-81
2023/03/20 07:37:41;;;;;;;;;;;9.60;51.30;;;;;;5022677;28;20015;-82
2023/03/20 07:40:08;;;;;;;;;;;9.60;51.30;;;;;;5006327;28;20020;-80
2023/03/20 07:42:43;;;;;;;;;;;9.60;51.30;;;;;;5023129;28;19963;-79
2023/03/20 07:45:21;;;;;;;;;;;9.70;51.10;;;;;;5008452;28;19913;-79
2023/03/20 07:47:47;;;;;;;;;;;9.70;50.90;;;;;;5024092;28;19924;-79
2023/03/20 07:50:14;;;;;;;;;;;9.60;50.60;;;;;;5021410;28;19967;-78
2023/03/20 07:52:45;;;;;;;;;;;9.70;50.20;;;;;;5023054;28;19960;-79
2023/03/20 07:55:11;;;;;;;;;;;9.70;49.90;;;;;;5021996;28;20012;-79
2023/03/20 07:57:37;;;;;;;;;;;9.70;49.60;;;;;;5024440;28;20015;-81
2023/03/20 08:00:03;;;;;;;;;;;9.80;49.80;;;;;;5023683;28;19920;-78
2023/03/20 08:02:37;;;;;;;;;;;9.70;49.50;;;;;;5024584;28;20003;-81
2023/03/20 08:05:03;;;;;;;;;;;9.80;49.40;;;;;;5023128;28;20472;-81
2023/03/20 08:07:29;;;;;;;;;;;9.80;49.10;;;;;;5024577;28;19979;-80
2023/03/20 08:09:54;;;;;;;;;;;9.80;48.80;;;;;;5027715;28;19921;-76
2023/03/20 08:12:20;;;;;;;;;;;9.80;48.20;;;;;;5028207;28;19909;-77
2023/03/20 08:14:46;;;;;;;;;;;9.90;47.90;;;;;;5027740;28;19916;-79
2023/03/20 08:17:12;;;;;;;;;;;9.90;48.00;;;;;;5025993;28;19921;-78
2023/03/20 08:19:38;;;;;;;;;;;9.90;48.00;;;;;;5027678;28;19917;-78
2023/03/20 08:22:04;;;;;;;;;;;9.90;47.80;;;;;;5027692;28;19948;-75
2023/03/20 08:24:30;;;;;;;;;;;9.90;47.30;;;;;;5027527;28;20603;-76
2023/03/20 08:26:56;;;;;;;;;;;9.90;47.10;;;;;;5026352;28;19917;-77
2023/03/20 08:29:22;;;;;;;;;;;10.00;47.20;;;;;;5033816;28;19924;-79
2023/03/20 08:31:48;;;;;;;;;;;10.00;47.10;;;;;;5046973;28;19917;-79
2023/03/20 08:34:14;;;;;;;;;;;10.10;47.20;;;;;;5028421;28;19926;-78
2023/03/20 08:36:42;;;;;;;;;;;10.10;47.10;;;;;;5046730;28;20409;-80
2023/03/20 08:39:08;;;;;;;;;;;10.10;47.00;;;;;;5012784;28;19912;-78
2023/03/20 08:41:37;;;;;;;;;;;10.10;47.10;;;;;;5028822;28;19924;-77
2023/03/20 08:44:04;;;;;;;;;;;10.10;46.90;;;;;;5027426;28;19967;-79
2023/03/20 08:46:29;;;;;;;;;;;10.10;47.00;;;;;;5046744;28;19931;-77
2023/03/20 08:48:57;;;;;;;;;;;10.20;46.80;;;;;;5012727;28;19917;-79
2023/03/20 08:51:23;;;;;;;;;;;10.20;46.80;;;;;;5046663;28;19912;-78
2023/03/20 08:53:49;;;;;;;;;;;10.20;46.70;;;;;;5046206;28;20573;-76
2023/03/20 08:56:15;;;;;;;;;;;10.20;46.50;;;;;;5046406;28;19971;-76
2023/03/20 08:58:41;;;;;;;;;;;10.20;46.30;;;;;;5046318;28;19920;-77
2023/03/20 09:01:08;;;;;;;;;;;10.20;46.30;;;;;;5028483;28;19924;-78
2023/03/20 09:03:35;;;;;;;;;;;10.30;46.30;;;;;;5028691;28;19913;-77
2023/03/20 09:06:03;;;;;;;;;;;10.30;47.80;;;;;;5026481;28;19974;-70
2023/03/20 09:08:29;;;;;;;;;;;10.30;48.70;;;;;;5042384;28;19928;-70
2023/03/20 09:10:54;;;;;;;;;;;10.40;50.60;;;;;;5045987;28;19916;-72
2023/03/20 09:13:21;;;;;;;;;;;10.50;50.80;;;;;;5045960;28;20011;-70
2023/03/20 09:15:47;;;;;;;;;;;10.60;52.20;;;;;;5045968;28;20395;-71
2023/03/20 09:18:13;;;;;;;;;;;10.70;52.30;;;;;;5028594;28;19962;-71
2023/03/20 09:20:39;;;;;;;;;;;10.80;52.60;;;;;;5044948;28;19920;-72
2023/03/20 09:23:05;;;;;;;;;;;10.80;52.30;;;;;;5045572;28;20712;-71
2023/03/20 09:25:30;;;;;;;;;;;10.90;54.40;;;;;;5045405;28;19921;-72
2023/03/20 09:27:56;;;;;;;;;;;11.00;52.20;;;;;;5046052;28;20461;-70
2023/03/20 09:30:23;;;;;;;;;;;11.10;51.30;;;;;;5046707;28;19925;-71
2023/03/20 09:32:49;;;;;;;;;;;11.20;51.40;;;;;;5045261;28;19956;-72
2023/03/20 09:35:16;;;;;;;;;;;11.30;51.40;;;;;;5026000;28;19921;-72
2023/03/20 09:37:41;;;;;;;;;;;11.30;51.50;;;;;;5045879;28;19917;-71
2023/03/20 09:40:09;;;;;;;;;;;11.40;51.60;;;;;;5046377;28;19974;-71
2023/03/20 09:42:35;;;;;;;;;;;11.50;51.50;;;;;;5028453;28;19923;-70
2023/03/20 09:45:10;;;;;;;;;;;11.60;51.10;;;;;;5045673;28;19916;-70
2023/03/20 09:47:54;;;;;;;;;;;11.60;51.00;;;;;;5045708;28;19964;-72
2023/03/20 09:50:24;;;;;;;;;;;11.70;50.70;;;;;;5025931;28;20371;-76
2023/03/20 09:53:05;;;;;;;;;;;11.80;50.50;;;;;;5045443;28;19921;-76
2023/03/20 09:55:33;;;;;;;;;;;11.80;49.10;;;;;;5026615;28;19921;-76
2023/03/20 09:58:10;;;;;;;;;;;11.80;48.20;;;;;;5044698;28;19948;-77
2023/03/20 10:00:41;;;;;;;;;;;11.80;47.10;;;;;;5026249;28;19916;-79
2023/03/20 10:03:14;;;;;;;;;;;11.80;46.90;;;;;;5028503;28;19995;-74
2023/03/20 10:05:49;;;;;;;;;;;11.80;47.10;;;;;;5027545;28;19973;-76
2023/03/20 10:08:17;;;;;;;;;;;11.70;46.50;;;;;;5011055;28;19927;-76
2023/03/20 10:11:01;;;;;;;;;;;11.70;46.40;;;;;;5044819;28;19927;-76
2023/03/20 10:13:36;;;;;;;;;;;11.70;45.90;;;;;;5044428;28;19923;-76
2023/03/20 10:16:21;;;;;;;;;;;11.70;45.50;;;;;;5045094;28;19960;-76
2023/03/20 10:19:05;;;;;;;;;;;11.70;45.70;;;;;;5044856;28;19974;-76
2023/03/20 10:21:45;;;;;;;;;;;11.70;45.30;;;;;;5044558;28;19921;-77
2023/03/20 10:24:18;;;;;;;;;;;11.60;45.10;;;;;;5042588;28;19927;-78
2023/03/20 10:26:45;;;;;;;;;;;11.60;44.90;;;;;;5044628;28;19940;-77
2023/03/20 10:29:32;;;;;;;;;;;11.70;44.70;;;;;;5026622;28;19931;-76
2023/03/20 10:32:11;;;;;;;;;;;11.60;44.40;;;;;;5043857;28;19917;-78
2023/03/20 10:34:47;;;;;;;;;;;11.60;44.20;;;;;;5044154;28;20394;-76
2023/03/20 10:37:13;;;;;;;;;;;11.60;44.20;;;;;;5044509;28;19917;-76
2023/03/20 10:39:58;;;;;;;;;;;11.60;44.00;;;;;;5026071;28;19917;-77
2023/03/20 10:42:27;;;;;;;;;;;11.60;43.90;;;;;;5044937;28;20021;-75
2023/03/20 10:45:16;;;;;;;;;;;11.60;44.10;;;;;;5042953;28;19924;-76
2023/03/20 10:47:42;;;;;;;;;;;11.60;44.00;;;;;;4961001;28;19918;-75
2023/03/20 10:50:16;;;;;;;;;;;11.50;43.80;;;;;;4958002;28;19972;-75
2023/03/20 10:52:43;;;;;;;;;;;11.50;44.40;;;;;;4945700;28;19956;-75
2023/03/20 10:55:29;;;;;;;;;;;11.60;43.60;;;;;;4944631;28;20467;-75
2023/03/20 10:57:58;;;;;;;;;;;11.60;43.60;;;;;;4959854;28;20270;-75
2023/03/20 11:00:25;;;;;;;;;;;11.60;43.40;;;;;;4961110;28;20352;-75
2023/03/20 11:02:51;;;;;;;;;;;11.50;43.70;;;;;;4961894;28;20653;-75
2023/03/20 11:05:23;;;;;;;;;;;11.50;44.00;;;;;;4960010;28;20424;-76
2023/03/20 11:07:51;;;;;;;;;;;11.50;43.90;;;;;;4944795;28;19922;-75
2023/03/20 11:10:17;;;;;;;;;;;11.50;44.10;;;;;;4944380;28;19920;-77
2023/03/20 11:12:44;;;;;;;;;;;11.60;44.20;;;;;;4960520;28;19920;-76
2023/03/20 11:15:19;;;;;;;;;;;11.50;44.30;;;;;;4945210;28;19948;-77
2023/03/20 11:17:55;;;;;;;;;;;11.60;44.20;;;;;;4960016;28;19921;-77
2023/03/20 11:20:23;;;;;;;;;;;11.50;44.20;;;;;;4959588;28;19969;-77
2023/03/20 11:22:50;;;;;;;;;;;11.50;44.70;;;;;;4958678;28;20448;-77
2023/03/20 11:25:45;;;;;;;;;;;11.50;44.80;;;;;;5018020;28;19921;-75
2023/03/20 11:28:18;;;;;;;;;;;11.50;45.00;;;;;;5038829;28;20371;-77
2023/03/20 11:30:44;;;;;;;;;;;11.60;45.20;;;;;;5001940;28;19924;-77
2023/03/20 11:33:10;;;;;;;;;;;11.50;45.00;;;;;;5003556;28;19917;-77
2023/03/20 11:35:36;;;;;;;;;;;11.50;45.10;;;;;;5018167;28;19917;-77
2023/03/20 11:38:12;;;;;;;;;;;11.50;45.20;;;;;;5022182;28;19940;-77
2023/03/20 11:40:38;;;;;;;;;;;11.60;45.40;;;;;;5021100;28;19917;-76
2023/03/20 11:43:14;;;;;;;;;;;11.50;45.50;;;;;;5023868;28;20288;-76
2023/03/20 11:45:45;;;;;;;;;;;11.60;45.80;;;;;;5025106;28;20403;-77
2023/03/20 11:48:16;;;;;;;;;;;11.50;46.10;;;;;;5025854;28;20015;-76
2023/03/20 11:50:44;;;;;;;;;;;11.50;46.40;;;;;;5021735;28;19917;-76
2023/03/20 11:53:16;;;;;;;;;;;11.50;46.30;;;;;;5025356;28;20315;-76
2023/03/20 11:55:45;;;;;;;;;;;11.50;46.20;;;;;;5025558;28;20387;-76
2023/03/20 11:58:14;;;;;;;;;;;11.50;46.20;;;;;;5025136;28;19928;-76
2023/03/20 12:00:41;;;;;;;;;;;11.50;46.20;;;;;;5024173;28;20430;-77
2023/03/20 12:03:25;;;;;;;;;;;11.50;46.20;;;;;;5026014;28;19912;-76
2023/03/20 12:05:58;;;;;;;;;;;11.50;46.30;;;;;;5024270;28;19921;-75
2023/03/20 12:08:25;;;;;;;;;;;11.50;46.60;;;;;;5024942;28;19917;-76
2023/03/20 12:10:56;;;;;;;;;;;11.50;46.90;;;;;;5025294;28;20775;-75
2023/03/20 12:13:25;;;;;;;;;;;11.50;46.70;;;;;;5021660;28;19917;-76
2023/03/20 12:15:54;;;;;;;;;;;11.50;46.60;;;;;;5024216;28;19916;-76
2023/03/20 12:18:37;;;;;;;;;;;11.50;46.60;;;;;;5041213;28;20011;-76
2023/03/20 12:21:03;;;;;;;;;;;11.60;46.80;;;;;;5019382;28;19932;-76
2023/03/20 12:23:35;;;;;;;;;;;11.50;46.90;;;;;;5023953;28;19921;-76
2023/03/20 12:26:17;;;;;;;;;;;11.50;46.90;;;;;;5023943;28;20391;-76
2023/03/20 12:28:45;;;;;;;;;;;11.50;47.00;;;;;;5023868;28;20398;-76
2023/03/20 12:31:44;;;;;;;;;;;11.60;47.00;;;;;;5043960;28;19924;-77
2023/03/20 12:34:10;;;;;;;;;;;11.50;46.90;;;;;;4947714;28;19922;-76
2023/03/20 12:36:40;;;;;;;;;;;11.60;46.90;;;;;;4950428;28;19914;-76
2023/03/20 12:39:11;;;;;;;;;;;11.60;46.90;;;;;;4949838;28;19918;-76
2023/03/20 12:41:37;;;;;;;;;;;11.60;46.90;;;;;;4931755;28;19981;-78
2023/03/20 12:44:09;;;;;;;;;;;11.60;46.80;;;;;;4948414;28;19921;-78
2023/03/20 12:46:54;;;;;;;;;;;11.60;46.90;;;;;;4949391;28;19929;-78
2023/03/20 12:49:19;;;;;;;;;;;11.60;47.20;;;;;;4945353;28;19922;-77
2023/03/20 12:51:48;;;;;;;;;;;11.60;47.20;;;;;;4953235;28;19914;-77
2023/03/20 12:54:24;;;;;;;;;;;11.60;47.00;;;;;;4950143;28;20397;-77
2023/03/20 12:56:50;;;;;;;;;;;11.60;47.20;;;;;;4920672;28;19993;-78
2023/03/20 12:59:19;;;;;;;;;;;11.60;47.10;;;;;;4951029;28;19922;-79
2023/03/20 13:02:07;;;;;;;;;;;11.60;47.30;;;;;;4949298;29;20395;-77
2023/03/20 13:04:52;;;;;;;;;;;11.60;47.30;;;;;;4954961;28;19918;-75
2023/03/20 13:07:20;;;;;;;;;;;11.60;47.30;;;;;;4955658;28;20384;-75
2023/03/20 13:10:00;;;;;;;;;;;11.60;47.30;;;;;;4977374;28;19912;-75
2023/03/20 13:12:48;;;;;;;;;;;11.60;47.40;;;;;;5051896;28;19913;-74
2023/03/20 13:15:14;;;;;;;;;;;11.70;47.60;;;;;;5050803;28;19916;-75
2023/03/20 13:17:48;;;;;;;;;;;11.70;47.70;;;;;;5049866;28;19927;-74
2023/03/20 13:20:34;;;;;;;;;;;11.70;47.60;;;;;;5051490;28;19952;-74
2023/03/20 13:23:03;;;;;;;;;;;11.70;47.40;;;;;;5032196;28;19925;-79
2023/03/20 13:25:42;;;;;;;;;;;11.70;47.20;;;;;;5051081;28;19952;-86
2023/03/20 13:28:31;;;;;;;;;;;11.70;47.30;;;;;;5018866;28;20011;-78
2023/03/20 13:31:02;;;;;;;;;;;11.80;47.70;;;;;;4994328;28;20016;-77
2023/03/20 13:33:31;;;;;;;;;;;11.80;48.80;;;;;;5012553;28;19905;-77
2023/03/20 13:36:00;;;;;;;;;;;11.90;49.20;;;;;;5010888;28;19921;-77
2023/03/20 13:38:29;;;;;;;;;;;11.90;49.50;;;;;;5010558;28;19917;-76
2023/03/20 13:41:00;;;;;;;;;;;12.00;50.00;;;;;;5027093;28;19917;-76
2023/03/20 13:43:32;;;;;;;;;;;12.00;50.00;;;;;;5011786;28;19948;-76
2023/03/20 13:46:07;;;;;;;;;;;12.10;50.00;;;;;;4978188;28;19917;-77
2023/03/20 13:48:35;;;;;;;;;;;12.10;50.00;;;;;;5012397;28;20429;-76
2023/03/20 13:51:17;;;;;;;;;;;12.20;50.00;;;;;;5026858;28;19917;-80
2023/03/20 13:53:47;;;;;;;;;;;12.30;50.20;;;;;;5037153;28;20384;-79
2023/03/20 13:56:23;;;;;;;;;;;12.30;49.60;;;;;;5031177;28;19959;-75
2023/03/20 13:58:59;;;;;;;;;;;12.30;49.00;;;;;;5031169;28;19967;-76
2023/03/20 14:01:33;;;;;;;;;;;12.30;48.50;;;;;;5030924;28;19921;-75
2023/03/20 14:03:59;;;;;;;;;;;12.30;48.30;;;;;;5029673;28;19963;-75
2023/03/20 14:06:31;;;;;;;;;;;12.30;48.10;;;;;;5010546;28;19964;-76
2023/03/20 14:08:58;;;;;;;;;;;12.30;47.70;;;;;;5016765;28;20337;-76
2023/03/20 14:11:23;;;;;;;;;;;12.30;47.50;;;;;;5030805;28;19917;-76
2023/03/20 14:13:49;;;;;;;;;;;12.30;47.50;;;;;;5030854;28;19980;-77
2023/03/20 14:16:18;;;;;;;;;;;12.30;47.50;;;;;;5030727;28;19917;-76
2023/03/20 14:18:48;;;;;;;;;;;12.30;47.30;;;;;;5028320;28;19912;-76
2023/03/20 14:21:18;;;;;;;;;;;12.30;47.20;;;;;;5040385;28;19967;-76
2023/03/20 14:23:48;;;;;;;;;;;12.30;47.30;;;;;;5025471;28;19917;-76
2023/03/20 14:26:26;;;;;;;;;;;12.30;47.30;;;;;;5023865;28;20023;-76
2023/03/20 14:28:51;;;;;;;;;;;12.30;47.50;;;;;;5024933;28;20419;-76
2023/03/20 14:31:25;;;;;;;;;;;12.20;47.50;;;;;;5044620;28;19921;-76
2023/03/20 14:33:58;;;;;;;;;;;12.20;47.80;;;;;;5049398;28;19913;-76
2023/03/20 14:36:40;;;;;;;;;;;12.20;47.70;;;;;;5033108;28;19930;-76
2023/03/20 14:39:20;;;;;;;;;;;12.20;48.30;;;;;;5013167;28;20012;-76
2023/03/20 14:41:48;;;;;;;;;;;12.20;48.90;;;;;;5042086;28;19927;-77
2023/03/20 14:44:14;;;;;;;;;;;12.20;47.70;;;;;;5049834;28;20307;-77
2023/03/20 14:46:43;;;;;;;;;;;12.20;47.90;;;;;;5047409;28;20019;-76